Time;durP1;ratioP1;P1;durP2;ratioP2;P2;SDS_P1;SDS_P2;PMS_P1;PMS_P2;Temp;Humidity;BMP_temperature;BMP_pressure;BME280_temperature;BME280_humidity;BME280_pressure;Samples;Min_cycle;Max_cycle;Signal;HPM_P1;HPM_P2
2021/11/25 00:01:25;;;;;;;22.27;2.67;;;;;;;;;;5048007;28;20082;-64
2021/11/25 00:03:51;;;;;;;9.03;2.33;;;;;;;;;;5048058;28;20020;-64
2021/11/25 00:06:18;;;;;;;18.60;3.07;;;;;;;;;;5049687;28;20021;-64
2021/11/25 00:08:45;;;;;;;12.03;2.30;;;;;;;;;;5052945;28;20031;-64
2021/11/25 00:11:11;;;;;;;8.77;2.07;;;;;;;;;;5052987;28;20025;-64
2021/11/25 00:13:38;;;;;;;13.53;2.63;;;;;;;;;;5052937;28;20464;-64
2021/11/25 00:16:05;;;;;;;14.33;2.23;;;;;;;;;;5052828;28;20472;-64
2021/11/25 00:18:32;;;;;;;7.40;2.50;;;;;;;;;;5051888;28;20112;-64
2021/11/25 00:20:59;;;;;;;14.87;2.40;;;;;;;;;;5047876;28;20468;-64
2021/11/25 00:23:25;;;;;;;9.30;1.77;;;;;;;;;;5047805;28;20033;-64
2021/11/25 00:25:52;;;;;;;7.33;1.50;;;;;;;;;;5047963;28;20028;-64
2021/11/25 00:28:19;;;;;;;3.53;1.60;;;;;;;;;;5047798;28;20094;-64
2021/11/25 00:30:46;;;;;;;6.50;1.60;;;;;;;;;;5048406;28;20447;-64
2021/11/25 00:33:13;;;;;;;3.00;1.10;;;;;;;;;;5052531;28;20637;-64
2021/11/25 00:35:39;;;;;;;13.17;1.90;;;;;;;;;;5051111;28;20036;-64
2021/11/25 00:38:07;;;;;;;3.03;1.07;;;;;;;;;;5052325;28;20029;-64
2021/11/25 00:40:34;;;;;;;8.10;1.27;;;;;;;;;;5052629;28;20021;-64
2021/11/25 00:43:00;;;;;;;5.70;1.40;;;;;;;;;;5059653;28;20016;-64
2021/11/25 00:45:27;;;;;;;4.00;1.47;;;;;;;;;;5067637;28;20046;-64
2021/11/25 00:47:54;;;;;;;8.17;1.37;;;;;;;;;;5067635;28;20048;-64
2021/11/25 00:50:22;;;;;;;10.37;1.90;;;;;;;;;;5067710;28;20385;-64
2021/11/25 00:52:49;;;;;;;10.23;2.50;;;;;;;;;;5061612;28;20060;-64
2021/11/25 00:55:16;;;;;;;8.40;2.23;;;;;;;;;;5067577;28;20108;-64
2021/11/25 00:57:43;;;;;;;3.70;1.80;;;;;;;;;;5072420;28;20029;-64
2021/11/25 01:00:11;;;;;;;6.73;1.27;;;;;;;;;;5072371;28;20032;-64
2021/11/25 01:02:38;;;;;;;12.07;2.10;;;;;;;;;;5072389;28;20107;-64
2021/11/25 01:05:05;;;;;;;4.70;1.80;;;;;;;;;;5071852;28;20102;-64
2021/11/25 01:07:32;;;;;;;13.63;2.73;;;;;;;;;;5071947;28;20064;-64
2021/11/25 01:09:59;;;;;;;12.73;2.47;;;;;;;;;;5067484;28;20020;-64
2021/11/25 01:12:28;;;;;;;3.97;2.13;;;;;;;;;;5067321;28;20051;-64
2021/11/25 01:14:55;;;;;;;7.10;2.53;;;;;;;;;;5067181;28;20533;-63
2021/11/25 01:17:22;;;;;;;6.20;2.10;;;;;;;;;;5067275;28;20048;-64
2021/11/25 01:19:48;;;;;;;5.80;2.30;;;;;;;;;;5067327;28;20032;-64
2021/11/25 01:22:15;;;;;;;10.43;2.40;;;;;;;;;;5071760;28;20115;-64
2021/11/25 01:24:42;;;;;;;9.13;2.20;;;;;;;;;;5053821;28;20094;-64
2021/11/25 01:27:11;;;;;;;6.57;2.43;;;;;;;;;;5071843;28;20045;-63
2021/11/25 01:29:37;;;;;;;13.23;3.00;;;;;;;;;;5071878;28;20025;-63
2021/11/25 01:32:06;;;;;;;7.40;2.50;;;;;;;;;;5071609;28;20475;-63
2021/11/25 01:34:33;;;;;;;8.50;2.60;;;;;;;;;;5066346;28;20236;-64
2021/11/25 01:37:00;;;;;;;5.60;2.17;;;;;;;;;;5066244;28;20102;-63
2021/11/25 01:39:29;;;;;;;8.13;2.60;;;;;;;;;;5065928;28;20820;-63
2021/11/25 01:41:56;;;;;;;9.33;2.30;;;;;;;;;;5065849;28;20413;-63
2021/11/25 01:44:22;;;;;;;9.83;2.50;;;;;;;;;;5071041;28;20029;-63
2021/11/25 01:46:51;;;;;;;10.40;2.70;;;;;;;;;;5074228;28;20036;-63
2021/11/25 01:49:18;;;;;;;16.27;2.67;;;;;;;;;;5075670;28;20063;-63
2021/11/25 01:51:45;;;;;;;9.10;2.70;;;;;;;;;;5075441;28;20055;-63
2021/11/25 01:54:12;;;;;;;18.77;3.30;;;;;;;;;;5075287;28;20027;-64
2021/11/25 01:56:39;;;;;;;8.00;2.50;;;;;;;;;;5070310;28;20062;-63
2021/11/25 01:59:05;;;;;;;9.17;2.33;;;;;;;;;;5070056;28;20028;-63
2021/11/25 02:01:34;;;;;;;8.47;1.63;;;;;;;;;;5069504;28;20021;-63
2021/11/25 02:04:02;;;;;;;11.10;2.07;;;;;;;;;;5069910;28;20031;-63
2021/11/25 02:06:28;;;;;;;17.07;6.13;;;;;;;;;;5074215;28;20471;-63
2021/11/25 02:08:56;;;;;;;4.70;2.33;;;;;;;;;;5075473;28;20103;-63
2021/11/25 02:11:23;;;;;;;7.60;2.60;;;;;;;;;;5074660;28;20372;-63
2021/11/25 02:13:50;;;;;;;14.60;3.77;;;;;;;;;;5075355;28;20035;-63
2021/11/25 02:16:17;;;;;;;8.40;2.57;;;;;;;;;;5075195;28;20033;-63
2021/11/25 02:18:44;;;;;;;11.40;2.20;;;;;;;;;;5070324;28;20036;-63
2021/11/25 02:21:10;;;;;;;6.20;2.40;;;;;;;;;;5069709;28;20547;-63
2021/11/25 02:23:37;;;;;;;6.90;2.47;;;;;;;;;;5069306;28;20130;-63
2021/11/25 02:26:05;;;;;;;6.27;2.27;;;;;;;;;;5069281;28;20032;-63
2021/11/25 02:28:36;;;;;;;9.57;2.97;;;;;;;;;;5073280;28;20048;-63
2021/11/25 02:31:04;;;;;;;10.77;2.50;;;;;;;;;;5075017;28;20024;-63
2021/11/25 02:33:30;;;;;;;12.03;2.30;;;;;;;;;;5074681;28;20029;-63
2021/11/25 02:35:58;;;;;;;5.90;1.80;;;;;;;;;;5056755;28;20035;-63
2021/11/25 02:38:25;;;;;;;9.00;2.33;;;;;;;;;;5074715;28;20032;-64
2021/11/25 02:40:54;;;;;;;5.03;1.90;;;;;;;;;;5070141;28;20029;-63
2021/11/25 02:43:24;;;;;;;5.27;1.47;;;;;;;;;;5068961;28;20028;-63
2021/11/25 02:45:56;;;;;;;6.97;2.03;;;;;;;;;;5069158;28;20036;-63
2021/11/25 02:48:25;;;;;;;8.03;1.77;;;;;;;;;;5068981;28;20468;-63
2021/11/25 02:50:53;;;;;;;6.20;1.87;;;;;;;;;;5073369;28;20421;-63
2021/11/25 02:53:26;;;;;;;8.37;2.13;;;;;;;;;;5073823;28;20052;-63
2021/11/25 02:56:01;;;;;;;21.80;3.23;;;;;;;;;;5074840;28;20106;-63
2021/11/25 02:58:28;;;;;;;9.32;2.03;;;;;;;;;;5073605;28;20061;-63
2021/11/25 03:00:56;;;;;;;8.93;2.03;;;;;;;;;;5074459;28;20042;-63
2021/11/25 03:03:23;;;;;;;5.83;1.60;;;;;;;;;;5069304;28;20475;-63
2021/11/25 03:05:51;;;;;;;8.93;2.00;;;;;;;;;;5068790;28;20044;-63
2021/11/25 03:08:19;;;;;;;7.00;1.83;;;;;;;;;;5068351;28;20027;-63
2021/11/25 03:10:49;;;;;;;4.33;2.07;;;;;;;;;;5068791;28;20027;-63
2021/11/25 03:13:18;;;;;;;4.60;2.23;;;;;;;;;;5072638;28;20100;-63
2021/11/25 03:15:47;;;;;;;3.93;1.33;;;;;;;;;;5074633;28;20039;-63
2021/11/25 03:18:14;;;;;;;9.77;1.80;;;;;;;;;;5074109;28;20028;-63
2021/11/25 03:20:45;;;;;;;5.23;1.60;;;;;;;;;;5073679;28;20086;-63
2021/11/25 03:23:13;;;;;;;5.97;2.07;;;;;;;;;;5073750;28;20098;-63
2021/11/25 03:25:41;;;;;;;10.57;1.97;;;;;;;;;;5068788;28;20483;-63
2021/11/25 03:28:08;;;;;;;8.93;1.53;;;;;;;;;;5068127;28;20541;-63
2021/11/25 03:30:35;;;;;;;8.87;1.40;;;;;;;;;;5068486;28;20127;-63
2021/11/25 03:33:03;;;;;;;4.23;1.70;;;;;;;;;;5068255;28;20425;-63
2021/11/25 03:35:30;;;;;;;5.83;1.67;;;;;;;;;;5071732;28;20028;-63
2021/11/25 03:37:57;;;;;;;3.97;1.47;;;;;;;;;;5073684;28;20025;-63
2021/11/25 03:40:24;;;;;;;3.70;1.50;;;;;;;;;;5073723;28;20032;-63
2021/11/25 03:42:51;;;;;;;2.87;1.20;;;;;;;;;;5073859;28;20039;-63
2021/11/25 03:45:18;;;;;;;3.07;1.30;;;;;;;;;;5073212;28;20071;-63
2021/11/25 03:47:45;;;;;;;5.23;1.43;;;;;;;;;;5069032;28;20031;-63
2021/11/25 03:50:13;;;;;;;3.77;1.10;;;;;;;;;;5067948;28;20026;-63
2021/11/25 03:52:40;;;;;;;6.03;1.33;;;;;;;;;;5067347;28;20016;-63
2021/11/25 03:55:08;;;;;;;5.23;1.47;;;;;;;;;;5067199;28;20020;-63
2021/11/25 03:57:34;;;;;;;4.30;2.27;;;;;;;;;;5071258;28;20021;-62
2021/11/25 04:00:05;;;;;;;7.00;1.20;;;;;;;;;;5073335;28;20503;-63
2021/11/25 04:02:32;;;;;;;3.37;1.60;;;;;;;;;;5073336;28;20021;-62
2021/11/25 04:04:59;;;;;;;3.97;1.40;;;;;;;;;;5073156;28;20391;-63
2021/11/25 04:07:25;;;;;;;2.50;1.30;;;;;;;;;;5072804;28;20016;-63
2021/11/25 04:09:52;;;;;;;4.70;1.20;;;;;;;;;;5069017;28;20197;-63
2021/11/25 04:12:19;;;;;;;7.27;1.60;;;;;;;;;;5067511;28;20020;-63
2021/11/25 04:14:46;;;;;;;5.33;1.43;;;;;;;;;;5067189;28;20032;-62
2021/11/25 04:17:13;;;;;;;4.57;1.37;;;;;;;;;;5067428;28;20032;-62
2021/11/25 04:19:40;;;;;;;4.00;1.40;;;;;;;;;;5070231;28;20032;-63
2021/11/25 04:22:06;;;;;;;5.13;1.67;;;;;;;;;;5072438;28;20603;-63
2021/11/25 04:24:33;;;;;;;4.83;1.23;;;;;;;;;;5072939;28;20028;-62
2021/11/25 04:27:00;;;;;;;7.77;1.40;;;;;;;;;;5072645;28;20024;-63
2021/11/25 04:29:27;;;;;;;6.53;1.43;;;;;;;;;;5072864;28;20382;-63
2021/11/25 04:37:25;;;;;;;7.10;1.37;;;;;;;;;;5032543;28;20498;-63
2021/11/25 04:39:51;;;;;;;2.30;1.30;;;;;;;;;;5047308;28;20052;-63
2021/11/25 04:42:18;;;;;;;2.30;1.07;;;;;;;;;;5051025;28;20056;-63
2021/11/25 04:44:45;;;;;;;5.77;2.17;;;;;;;;;;5052761;28;20029;-63
2021/11/25 04:47:13;;;;;;;2.83;1.20;;;;;;;;;;5069486;28;20044;-63
2021/11/25 04:49:40;;;;;;;4.97;1.90;;;;;;;;;;5072259;28;20016;-62
2021/11/25 04:52:07;;;;;;;3.03;1.60;;;;;;;;;;5072426;28;20483;-63
2021/11/25 04:54:33;;;;;;;4.73;1.70;;;;;;;;;;5060867;28;20021;-63
2021/11/25 04:57:01;;;;;;;5.00;1.47;;;;;;;;;;5062952;28;20028;-63
2021/11/25 04:59:28;;;;;;;1.80;0.90;;;;;;;;;;5058522;28;20036;-63
2021/11/25 05:02:03;;;;;;;4.50;1.10;;;;;;;;;;5059346;28;20463;-63
2021/11/25 05:04:31;;;;;;;1.97;1.07;;;;;;;;;;5058439;28;20429;-63
2021/11/25 05:06:58;;;;;;;4.87;1.20;;;;;;;;;;5072502;28;20403;-62
2021/11/25 05:09:25;;;;;;;4.43;1.20;;;;;;;;;;5061134;28;20079;-63
2021/11/25 05:11:51;;;;;;;3.13;1.10;;;;;;;;;;5063630;28;20021;-62
2021/11/25 05:14:18;;;;;;;6.00;1.10;;;;;;;;;;5057782;28;20029;-62
2021/11/25 05:16:45;;;;;;;2.37;1.40;;;;;;;;;;5065992;28;20422;-63
2021/11/25 05:19:15;;;;;;;5.97;1.20;;;;;;;;;;5067133;28;20029;-62
2021/11/25 05:21:42;;;;;;;1.47;0.77;;;;;;;;;;5066445;28;20058;-62
2021/11/25 05:24:09;;;;;;;2.20;0.90;;;;;;;;;;5067083;28;20031;-62
2021/11/25 05:26:36;;;;;;;5.30;1.10;;;;;;;;;;5069498;28;20436;-62
2021/11/25 05:29:03;;;;;;;3.33;1.40;;;;;;;;;;5071886;28;20533;-62
2021/11/25 05:31:30;;;;;;;5.33;1.63;;;;;;;;;;5071852;28;20029;-62
2021/11/25 05:33:57;;;;;;;1.80;1.03;;;;;;;;;;5072147;28;20016;-62
2021/11/25 05:36:24;;;;;;;4.90;1.20;;;;;;;;;;5071868;28;20077;-62
2021/11/25 05:38:50;;;;;;;3.03;1.20;;;;;;;;;;5068236;28;20039;-62
2021/11/25 05:41:17;;;;;;;4.90;1.10;;;;;;;;;;5066812;28;20029;-62
2021/11/25 05:43:44;;;;;;;2.50;0.97;;;;;;;;;;5066724;28;20021;-62
2021/11/25 05:46:11;;;;;;;4.00;0.63;;;;;;;;;;5066482;28;20017;-62
2021/11/25 05:48:37;;;;;;;4.93;1.27;;;;;;;;;;5069340;28;20036;-62
2021/11/25 05:51:04;;;;;;;3.50;1.20;;;;;;;;;;5071779;28;20035;-62
2021/11/25 05:53:31;;;;;;;6.53;1.17;;;;;;;;;;5071922;28;20528;-62
2021/11/25 05:55:58;;;;;;;3.13;0.87;;;;;;;;;;5071580;28;20074;-62
2021/11/25 05:58:24;;;;;;;2.60;1.00;;;;;;;;;;5071775;28;20417;-62
2021/11/25 06:00:51;;;;;;;3.13;1.80;;;;;;;;;;5068542;28;20044;-62
2021/11/25 06:03:19;;;;;;;2.93;1.20;;;;;;;;;;5066390;28;20074;-62
2021/11/25 06:05:45;;;;;;;4.73;1.30;;;;;;;;;;5066112;28;20055;-62
2021/11/25 06:08:12;;;;;;;2.70;1.00;;;;;;;;;;5066526;28;20071;-62
2021/11/25 06:10:39;;;;;;;4.07;1.17;;;;;;;;;;5069112;28;20036;-62
2021/11/25 06:13:05;;;;;;;3.90;1.10;;;;;;;;;;5071813;28;20102;-62
2021/11/25 06:15:32;;;;;;;2.30;0.97;;;;;;;;;;5071922;28;20420;-62
2021/11/25 06:17:59;;;;;;;2.60;1.00;;;;;;;;;;5070990;28;20399;-62
2021/11/25 06:20:26;;;;;;;1.90;0.90;;;;;;;;;;5071322;28;20028;-62
2021/11/25 06:22:54;;;;;;;1.87;1.03;;;;;;;;;;5069139;28;20027;-62
2021/11/25 06:25:22;;;;;;;2.80;0.80;;;;;;;;;;5066593;28;20031;-62
2021/11/25 06:27:49;;;;;;;6.77;2.23;;;;;;;;;;5065985;28;20399;-62
2021/11/25 06:30:17;;;;;;;3.33;1.20;;;;;;;;;;5066223;28;20378;-62
2021/11/25 06:32:44;;;;;;;1.93;0.80;;;;;;;;;;5069360;28;20025;-62
2021/11/25 06:35:12;;;;;;;2.20;0.87;;;;;;;;;;5074447;28;20024;-62
2021/11/25 06:37:39;;;;;;;6.47;1.30;;;;;;;;;;5074949;28;20036;-62
2021/11/25 06:40:07;;;;;;;3.43;1.10;;;;;;;;;;5074652;28;20468;-62
2021/11/25 06:42:34;;;;;;;1.80;0.90;;;;;;;;;;5074899;28;20475;-62
2021/11/25 06:45:01;;;;;;;2.77;1.40;;;;;;;;;;5072220;28;20475;-62
2021/11/25 06:47:27;;;;;;;7.93;1.40;;;;;;;;;;5069632;28;20064;-62
2021/11/25 06:49:54;;;;;;;3.10;1.57;;;;;;;;;;5069221;28;20033;-62
2021/11/25 06:52:21;;;;;;;4.00;1.30;;;;;;;;;;5069457;28;20020;-62
2021/11/25 06:54:47;;;;;;;2.03;1.00;;;;;;;;;;5071333;28;20017;-62
2021/11/25 06:57:14;;;;;;;2.50;1.37;;;;;;;;;;5074667;28;20028;-62
2021/11/25 06:59:41;;;;;;;2.50;1.13;;;;;;;;;;5074311;28;20028;-62
2021/11/25 07:02:08;;;;;;;2.17;1.00;;;;;;;;;;5074641;28;20249;-62
2021/11/25 07:04:35;;;;;;;1.90;0.90;;;;;;;;;;5074575;28;20253;-62
2021/11/25 07:07:03;;;;;;;1.90;1.13;;;;;;;;;;5072359;28;20032;-62
2021/11/25 07:09:30;;;;;;;1.43;0.90;;;;;;;;;;5069187;28;20024;-62
2021/11/25 07:11:56;;;;;;;2.07;0.90;;;;;;;;;;5068843;28;21150;-62
2021/11/25 07:14:23;;;;;;;1.50;0.93;;;;;;;;;;5069289;28;20044;-62
2021/11/25 07:16:50;;;;;;;1.77;0.90;;;;;;;;;;5070473;28;20252;-62
2021/11/25 07:19:17;;;;;;;1.13;0.80;;;;;;;;;;5074224;28;20075;-62
2021/11/25 07:21:43;;;;;;;4.00;1.40;;;;;;;;;;5073951;28;20265;-62
2021/11/25 07:24:10;;;;;;;1.73;1.10;;;;;;;;;;5073771;28;20639;-62
2021/11/25 07:26:37;;;;;;;1.90;0.87;;;;;;;;;;5073966;28;20249;-62
2021/11/25 07:29:04;;;;;;;2.00;1.20;;;;;;;;;;5072525;28;20029;-62
2021/11/25 07:31:30;;;;;;;3.47;1.07;;;;;;;;;;5068557;28;20635;-62
2021/11/25 07:33:57;;;;;;;1.80;1.10;;;;;;;;;;5068780;28;20262;-62
2021/11/25 07:36:25;;;;;;;2.87;1.40;;;;;;;;;;5068694;28;20268;-62
2021/11/25 07:38:52;;;;;;;3.03;1.47;;;;;;;;;;5069325;28;20290;-62
2021/11/25 07:41:19;;;;;;;4.77;1.30;;;;;;;;;;5073071;28;20280;-62
2021/11/25 07:43:46;;;;;;;3.17;1.37;;;;;;;;;;5073285;28;20364;-62
2021/11/25 07:46:13;;;;;;;3.10;1.20;;;;;;;;;;5073920;28;20692;-62
2021/11/25 07:48:39;;;;;;;2.33;1.07;;;;;;;;;;5073640;28;20356;-62
2021/11/25 07:51:06;;;;;;;2.80;1.47;;;;;;;;;;5072444;28;20307;-62
2021/11/25 07:53:34;;;;;;;2.03;1.13;;;;;;;;;;5067832;28;20823;-62
2021/11/25 07:56:01;;;;;;;2.50;1.10;;;;;;;;;;5067952;28;20268;-62
2021/11/25 07:58:29;;;;;;;1.20;0.80;;;;;;;;;;5068157;28;20734;-62
2021/11/25 08:00:56;;;;;;;3.37;1.10;;;;;;;;;;5068521;28;20728;-62
2021/11/25 08:03:23;;;;;;;10.67;1.60;;;;;;;;;;5073012;28;20345;-62
2021/11/25 08:05:50;;;;;;;5.80;1.53;;;;;;;;;;5073409;28;20293;-62
2021/11/25 08:08:17;;;;;;;2.63;1.10;;;;;;;;;;5073287;28;20658;-62
2021/11/25 08:10:44;;;;;;;2.20;1.17;;;;;;;;;;5073827;28;20671;-62
2021/11/25 08:13:12;;;;;;;2.17;1.03;;;;;;;;;;5072169;28;20620;-62
2021/11/25 08:15:38;;;;;;;2.13;1.20;;;;;;;;;;5067890;28;20297;-62
2021/11/25 08:18:06;;;;;;;3.60;2.23;;;;;;;;;;5067776;28;20375;-62
2021/11/25 08:20:33;;;;;;;2.10;1.10;;;;;;;;;;5067841;28;20265;-62
2021/11/25 08:22:59;;;;;;;2.93;1.27;;;;;;;;;;5067641;28;20272;-62
2021/11/25 08:25:27;;;;;;;2.77;1.23;;;;;;;;;;5072490;28;20292;-63
2021/11/25 08:28:00;;;;;;;1.83;0.90;;;;;;;;;;5072692;28;20628;-63
2021/11/25 08:30:27;;;;;;;4.10;1.40;;;;;;;;;;5072994;28;20261;-62
2021/11/25 08:32:54;;;;;;;2.73;1.10;;;;;;;;;;5072849;28;20245;-62
2021/11/25 08:35:21;;;;;;;3.40;0.87;;;;;;;;;;5071840;28;20253;-62
2021/11/25 08:37:47;;;;;;;2.53;1.03;;;;;;;;;;5067224;28;20304;-62
2021/11/25 08:40:15;;;;;;;1.63;1.00;;;;;;;;;;5067091;28;20787;-62
2021/11/25 08:42:44;;;;;;;1.73;1.03;;;;;;;;;;5067276;28;20694;-62
2021/11/25 08:45:11;;;;;;;3.77;1.27;;;;;;;;;;5067502;28;20258;-62
2021/11/25 08:47:38;;;;;;;2.23;0.93;;;;;;;;;;5072514;28;20257;-62
2021/11/25 08:50:06;;;;;;;2.50;1.20;;;;;;;;;;5072613;28;20280;-62
2021/11/25 08:52:32;;;;;;;1.20;0.90;;;;;;;;;;5071980;28;20257;-62
2021/11/25 23:45:11;;;;;;;7.27;2.07;;;;;;;;;;4966711;28;20126;-60
2021/11/25 23:47:39;;;;;;;1.33;0.70;;;;;;;;;;4969277;28;20094;-60
2021/11/25 23:50:09;;;;;;;4.10;1.00;;;;;;;;;;4968552;28;20437;-61
2021/11/25 23:52:36;;;;;;;2.97;1.40;;;;;;;;;;4969354;28;20031;-61
2021/11/25 23:55:03;;;;;;;2.20;0.90;;;;;;;;;;4974705;28;20373;-60
2021/11/25 23:57:30;;;;;;;1.17;0.70;;;;;;;;;;4974467;28;20106;-60
2021/11/25 23:59:58;;;;;;;1.43;0.73;;;;;;;;;;4974549;28;20031;-61
